createdAt,value
2019-04-13T00:00:11.759Z,0
2019-04-13T00:03:17.641Z,0
2019-04-13T00:06:23.615Z,0
2019-04-13T00:09:29.530Z,0
2019-04-13T00:12:35.439Z,0
2019-04-13T00:15:41.393Z,0
2019-04-13T00:18:47.451Z,0
2019-04-13T00:21:53.415Z,0
2019-04-13T00:24:59.373Z,0
2019-04-13T00:28:05.443Z,0
2019-04-13T00:31:11.391Z,0
2019-04-13T00:34:20.285Z,0
2019-04-13T00:37:26.268Z,0
2019-04-13T00:40:32.257Z,0
2019-04-13T00:43:38.205Z,0
2019-04-13T00:46:46.918Z,0
2019-04-13T00:49:52.997Z,0
2019-04-13T00:52:59.071Z,0
2019-04-13T00:56:05.002Z,0
2019-04-13T00:59:11.143Z,0
2019-04-13T01:02:17.117Z,0
2019-04-13T01:05:23.162Z,0
2019-04-13T01:08:29.101Z,0
2019-04-13T01:11:35.023Z,0
2019-04-13T01:14:40.893Z,0
2019-04-13T01:17:46.842Z,0
2019-04-13T01:20:52.716Z,0
2019-04-13T01:23:58.660Z,0
2019-04-13T01:27:04.622Z,0
2019-04-13T01:30:10.583Z,0
2019-04-13T01:33:16.538Z,0
2019-04-13T01:36:22.498Z,0
2019-04-13T01:39:28.370Z,0
2019-04-13T01:42:34.315Z,0
2019-04-13T01:45:40.276Z,0
2019-04-13T01:48:46.337Z,0
2019-04-13T01:51:52.296Z,0
2019-04-13T01:54:58.174Z,0
2019-04-13T01:58:04.111Z,0
2019-04-13T02:01:10.073Z,0
2019-04-13T02:04:16.030Z,0
2019-04-13T02:07:21.993Z,0
2019-04-13T02:10:28.005Z,0
2019-04-13T02:13:33.910Z,0
2019-04-13T02:16:39.871Z,0
2019-04-13T02:19:45.831Z,0
2019-04-13T02:22:51.793Z,0
2019-04-13T02:25:57.752Z,0
2019-04-13T02:29:03.680Z,0
2019-04-13T02:32:09.552Z,0
2019-04-13T02:35:15.644Z,0
2019-04-13T02:38:40.757Z,0
2019-04-13T02:41:46.900Z,0
2019-04-13T02:44:52.969Z,0
2019-04-13T02:47:59.010Z,0
2019-04-13T02:51:05.096Z,0
2019-04-13T02:54:11.086Z,0
2019-04-13T02:57:17.217Z,0
2019-04-13T03:00:23.176Z,0
2019-04-13T03:03:29.146Z,0
2019-04-13T03:06:35.020Z,0
2019-04-13T03:09:41.062Z,0
2019-04-13T03:12:47.019Z,0
2019-04-13T03:15:52.903Z,0
2019-04-13T03:18:58.936Z,0
2019-04-13T03:22:04.897Z,0
2019-04-13T03:25:10.775Z,0
2019-04-13T03:28:16.815Z,0
2019-04-13T03:31:22.880Z,0
2019-04-13T03:34:28.999Z,0
2019-04-13T03:37:35.004Z,0
2019-04-13T03:40:40.886Z,0.1
2019-04-13T03:43:46.942Z,0.1
2019-04-13T03:46:52.812Z,0.2
2019-04-13T03:49:58.765Z,0.3
2019-04-13T03:53:04.833Z,0.4
2019-04-13T03:56:10.770Z,0.7
2019-04-13T03:59:16.653Z,1.4
2019-04-13T04:02:22.536Z,2.1
2019-04-13T04:05:28.526Z,2.2
2019-04-13T04:08:34.518Z,2.5
2019-04-13T04:11:40.446Z,2.9
2019-04-13T04:14:46.432Z,3.2
2019-04-13T04:17:52.391Z,3.7
2019-04-13T04:20:58.357Z,74.9
2019-04-13T04:24:04.521Z,6.8
2019-04-13T04:27:10.486Z,10.2
2019-04-13T04:30:16.384Z,13.3
2019-04-13T04:33:22.295Z,16.3
2019-04-13T04:36:28.360Z,17.1
2019-04-13T04:39:34.232Z,18.2
2019-04-13T04:42:40.171Z,17.9
2019-04-13T04:45:46.059Z,15.2
2019-04-13T04:48:52.089Z,12.2
2019-04-13T04:51:58.017Z,11.3
2019-04-13T04:55:04.016Z,11.7
2019-04-13T04:58:10.077Z,11.6
2019-04-13T05:01:16.035Z,12.7
2019-04-13T05:04:21.939Z,13.2
2019-04-13T05:07:27.851Z,13.7
2019-04-13T05:10:33.811Z,14.5
2019-04-13T05:13:39.749Z,27.2
2019-04-13T05:16:45.630Z,65.9
2019-04-13T05:19:51.587Z,24.5
2019-04-13T05:22:57.543Z,12.1
2019-04-13T05:26:03.509Z,11.3
2019-04-13T05:29:09.513Z,10.4
2019-04-13T05:32:15.398Z,9.7
2019-04-13T05:35:21.381Z,9.3
2019-04-13T05:38:27.344Z,9.1
2019-04-13T05:41:33.306Z,9.4
2019-04-13T05:44:39.263Z,10.1
2019-04-13T05:47:45.220Z,11.6
2019-04-13T05:50:51.184Z,13.4
2019-04-13T05:53:57.093Z,15
2019-04-13T05:57:06.077Z,16.1
2019-04-13T06:00:12.038Z,19.2
2019-04-13T06:03:17.991Z,21.2
2019-04-13T06:06:23.864Z,21.3
2019-04-13T06:09:30.125Z,20.2
2019-04-13T06:12:36.172Z,19.2
2019-04-13T06:15:42.250Z,18.5
2019-04-13T06:18:51.757Z,17.8
2019-04-13T06:21:58.357Z,17.5
2019-04-13T06:25:04.326Z,17.5
2019-04-13T06:28:17.652Z,18.5
2019-04-13T06:31:23.524Z,17.9
2019-04-13T06:34:29.550Z,18.5
2019-04-13T06:37:35.528Z,17.8
2019-04-13T06:40:44.060Z,15.3
2019-04-13T06:43:50.227Z,13.8
2019-04-13T06:46:56.085Z,12.7
2019-04-13T06:50:02.040Z,12.1
2019-04-13T06:53:10.810Z,11.8
2019-04-13T06:56:16.908Z,12.1
2019-04-13T06:59:22.885Z,12.8
2019-04-13T07:02:29.016Z,13.9
2019-04-13T07:05:35.218Z,15.6
2019-04-13T07:08:41.908Z,17
2019-04-13T07:11:48.273Z,18.3
2019-04-13T07:14:56.477Z,19.3
2019-04-13T07:18:02.489Z,19.7
2019-04-13T07:21:08.495Z,19.2
2019-04-13T07:24:14.566Z,19.7
2019-04-13T07:27:23.582Z,21.4
2019-04-13T07:30:29.547Z,23.8
2019-04-13T07:33:35.514Z,25.9
2019-04-13T07:36:44.848Z,25.7
2019-04-13T07:39:51.833Z,26.3
2019-04-13T07:43:00.639Z,27.7
2019-04-13T07:46:06.621Z,30.4
2019-04-13T07:49:16.987Z,33.7
2019-04-13T07:52:22.942Z,38
2019-04-13T07:55:37.049Z,41.6
2019-04-13T07:58:47.047Z,44.1
2019-04-13T08:01:59.861Z,63.7
2019-04-13T08:05:05.939Z,54.7
2019-04-13T08:08:11.823Z,49.3
2019-04-13T08:11:18.173Z,55.1
2019-04-13T08:14:24.090Z,29
2019-04-13T08:17:29.980Z,46.1
2019-04-13T08:20:37.470Z,52.6
2019-04-13T08:23:43.446Z,30.6
2019-04-13T08:26:51.950Z,27
2019-04-13T08:29:57.916Z,25
2019-04-13T08:33:04.188Z,25.4
2019-04-13T08:36:10.146Z,28.3
2019-04-13T08:39:17.538Z,34.6
2019-04-13T08:42:29.928Z,38.2
2019-04-13T08:45:35.907Z,29.5
2019-04-13T08:48:41.786Z,26.5
2019-04-13T08:51:47.723Z,23.2
2019-04-13T08:54:53.684Z,22.3
2019-04-13T08:57:59.752Z,21.5
2019-04-13T09:01:05.646Z,22.5
2019-04-13T09:04:11.689Z,22.6
2019-04-13T09:07:18.244Z,22
2019-04-13T09:10:37.284Z,21
2019-04-13T09:13:47.556Z,19.4
2019-04-13T09:16:58.568Z,18.5
2019-04-13T09:20:11.267Z,19.9
2019-04-13T09:23:20.509Z,21.6
2019-04-13T09:26:30.286Z,23
2019-04-13T09:29:40.927Z,23.8
2019-04-13T09:32:52.228Z,24.7
2019-04-13T09:36:00.005Z,24.8
2019-04-13T09:39:06.030Z,27.4
2019-04-13T09:42:14.184Z,29.3
2019-04-13T09:45:20.067Z,30.8
2019-04-13T09:48:26.004Z,31.7
2019-04-13T09:51:31.961Z,32.6
2019-04-13T09:54:37.834Z,32.8
2019-04-13T09:57:48.388Z,32.2
2019-04-13T10:00:55.606Z,31.7
2019-04-13T10:04:05.854Z,31.9
2019-04-13T10:07:14.005Z,32.2
2019-04-13T10:10:20.023Z,32.2
2019-04-13T10:13:25.998Z,32.6
2019-04-13T10:16:32.030Z,31.7
2019-04-13T10:19:41.081Z,30.2
2019-04-13T10:22:47.150Z,26.5
2019-04-13T10:25:53.189Z,22.5
2019-04-13T10:28:59.126Z,18.3
2019-04-13T10:32:05.121Z,16.8
2019-04-13T10:35:11.049Z,16.8
2019-04-13T10:38:17.036Z,17.2
2019-04-13T10:41:23.086Z,18.2
2019-04-13T10:44:29.064Z,19.5
2019-04-13T10:47:35.020Z,19.2
2019-04-13T10:50:41.085Z,19.5
2019-04-13T10:53:46.959Z,20.1
2019-04-13T10:56:52.990Z,20.3
2019-04-13T11:00:01.419Z,20.6
2019-04-13T11:03:07.469Z,21
2019-04-13T11:06:13.431Z,22
2019-04-13T11:09:30.837Z,23
2019-04-13T11:12:36.819Z,24.1
2019-04-13T11:15:47.581Z,25.7
2019-04-13T11:18:53.557Z,27.7
2019-04-13T11:21:59.622Z,29.3
2019-04-13T11:25:05.669Z,30.8
2019-04-13T11:28:11.543Z,30.4
2019-04-13T11:31:17.499Z,29.7
2019-04-13T11:34:32.643Z,29.5
2019-04-13T11:37:38.636Z,30.1
2019-04-13T11:40:44.696Z,30.1
2019-04-13T11:43:50.757Z,28.6
2019-04-13T11:46:56.777Z,28.1
2019-04-13T11:50:02.735Z,27.9
2019-04-13T11:53:08.741Z,27.7
2019-04-13T11:56:14.699Z,28.1
2019-04-13T11:59:20.577Z,27.5
2019-04-13T12:02:29.163Z,27.5
2019-04-13T12:05:35.757Z,27.5
2019-04-13T12:08:41.725Z,28.4
2019-04-13T12:11:47.692Z,28.1
2019-04-13T12:14:54.917Z,27.5
2019-04-13T12:18:00.977Z,27
2019-04-13T12:21:06.938Z,26.8
2019-04-13T12:24:12.850Z,25.9
2019-04-13T12:27:18.802Z,24.7
2019-04-13T12:30:24.784Z,24.3
2019-04-13T12:33:30.721Z,24.5
2019-04-13T12:36:36.784Z,24.7
2019-04-13T12:39:43.564Z,25.2
2019-04-13T12:42:49.524Z,27.4
2019-04-13T12:45:55.484Z,36.2
2019-04-13T12:49:01.443Z,31.3
2019-04-13T12:52:07.319Z,29
2019-04-13T12:55:20.387Z,25.6
2019-04-13T12:58:26.700Z,26.8
2019-04-13T13:01:35.420Z,25
2019-04-13T13:04:41.388Z,23.2
2019-04-13T13:07:47.265Z,21.6
2019-04-13T13:10:53.205Z,19.4
2019-04-13T13:13:59.110Z,19.4
2019-04-13T13:17:05.094Z,12.1
2019-04-13T13:20:11.085Z,11.1
2019-04-13T13:23:22.004Z,11.1
2019-04-13T13:26:27.876Z,11.6
2019-04-13T13:29:33.872Z,11.9
2019-04-13T13:32:39.830Z,12.2
2019-04-13T13:35:45.794Z,13.1
2019-04-13T13:38:51.758Z,13.6
2019-04-13T13:41:57.626Z,13.6
2019-04-13T13:45:03.582Z,13.5
2019-04-13T13:48:09.536Z,13.3
2019-04-13T13:51:15.487Z,13.2
2019-04-13T13:54:21.505Z,12.7
2019-04-13T13:57:27.408Z,12.1
2019-04-13T14:00:33.367Z,11.8
2019-04-13T14:03:39.341Z,11.6
2019-04-13T14:06:45.288Z,11.4
2019-04-13T14:09:51.227Z,11.4
2019-04-13T14:12:57.211Z,11.5
2019-04-13T14:16:03.278Z,11.7
2019-04-13T14:19:09.445Z,11.7
2019-04-13T14:22:15.315Z,11.7
2019-04-13T14:25:21.252Z,11.5
2019-04-13T14:28:27.213Z,11.1
2019-04-13T14:31:33.383Z,10.8
2019-04-13T14:34:39.337Z,10.8
2019-04-13T14:37:46.016Z,11.1
2019-04-13T14:40:59.248Z,11.1
2019-04-13T14:44:05.201Z,11.2
2019-04-13T14:47:11.369Z,10.5
2019-04-13T14:50:17.453Z,11
2019-04-13T14:53:23.391Z,11.5
2019-04-13T14:56:29.349Z,11.7
2019-04-13T14:59:39.918Z,12
2019-04-13T15:02:45.883Z,12
2019-04-13T15:05:51.862Z,11.9
2019-04-13T15:08:57.725Z,11.5
2019-04-13T15:12:03.593Z,10.4
2019-04-13T15:15:12.090Z,9.3
2019-04-13T15:18:26.034Z,8.8
2019-04-13T15:21:43.879Z,8.2
2019-04-13T15:25:10.192Z,7
2019-04-13T15:28:21.266Z,6.2
2019-04-13T15:31:46.696Z,5.7
2019-04-13T15:34:57.604Z,5.7
2019-04-13T15:38:33.440Z,6.3
2019-04-13T15:42:43.703Z,7.1
2019-04-13T15:46:37.272Z,7.1
2019-04-13T15:49:46.412Z,6.6
2019-04-13T15:52:57.517Z,6.2
2019-04-13T15:56:08.811Z,6.1
2019-04-13T15:59:24.373Z,5.9
2019-04-13T16:02:36.613Z,5.2
2019-04-13T16:05:50.192Z,4.6
2019-04-13T16:09:00.474Z,4.3
2019-04-13T16:12:16.878Z,3.9
2019-04-13T16:15:27.844Z,3.6
2019-04-13T16:18:39.164Z,3.4
2019-04-13T16:21:49.602Z,2.7
2019-04-13T16:24:59.487Z,2.4
2019-04-13T16:28:15.522Z,2.2
2019-04-13T16:31:26.897Z,2
2019-04-13T16:34:37.168Z,1.9
2019-04-13T16:37:46.870Z,1.6
2019-04-13T16:40:57.109Z,1.4
2019-04-13T16:44:08.229Z,1.3
2019-04-13T16:47:18.667Z,1.1
2019-04-13T16:50:28.753Z,0.9
2019-04-13T16:53:38.532Z,0.7
2019-04-13T16:56:48.624Z,0.6
2019-04-13T16:59:57.858Z,0.5
2019-04-13T17:03:09.630Z,0.4
2019-04-13T17:06:21.931Z,0.3
2019-04-13T17:09:37.858Z,0.1
2019-04-13T17:12:53.171Z,0.1
2019-04-13T17:16:03.359Z,0.1
2019-04-13T17:19:13.321Z,0
2019-04-13T17:22:23.898Z,0
2019-04-13T17:25:34.884Z,0
2019-04-13T17:28:45.739Z,0
2019-04-13T17:31:55.601Z,0
2019-04-13T17:35:05.481Z,0
2019-04-13T17:38:16.273Z,0
2019-04-13T17:41:28.097Z,0
2019-04-13T17:44:39.545Z,0
2019-04-13T17:47:50.126Z,0
2019-04-13T17:51:01.340Z,0
2019-04-13T17:54:12.571Z,0
2019-04-13T17:57:22.722Z,0
2019-04-13T18:00:33.498Z,0
2019-04-13T18:03:43.437Z,0
2019-04-13T18:06:54.007Z,0
2019-04-13T18:10:03.049Z,0
2019-04-13T18:13:13.288Z,0
2019-04-13T18:16:25.695Z,0
2019-04-13T18:19:35.611Z,0
2019-04-13T18:22:51.555Z,0
2019-04-13T18:26:06.956Z,0
2019-04-13T18:29:21.718Z,0
2019-04-13T18:32:33.001Z,0
2019-04-13T18:35:50.655Z,0
2019-04-13T18:39:02.631Z,0
2019-04-13T18:42:13.329Z,0
2019-04-13T18:45:24.409Z,0
2019-04-13T18:48:38.613Z,0
2019-04-13T18:51:51.320Z,0
2019-04-13T18:55:01.695Z,0
2019-04-13T18:58:18.313Z,0
2019-04-13T19:01:29.902Z,0
2019-04-13T19:04:37.936Z,0
2019-04-13T19:07:43.892Z,0
2019-04-13T19:10:49.950Z,0
2019-04-13T19:13:56.012Z,0
2019-04-13T19:17:01.974Z,0
2019-04-13T19:20:07.929Z,0
2019-04-13T19:23:13.905Z,0
2019-04-13T19:26:19.851Z,0
2019-04-13T19:29:25.899Z,0
2019-04-13T19:32:31.853Z,0
2019-04-13T19:35:37.830Z,0
2019-04-13T19:38:43.820Z,0
2019-04-13T19:41:49.747Z,0
2019-04-13T19:44:55.709Z,0
2019-04-13T19:48:01.769Z,0
2019-04-13T19:51:07.729Z,0
2019-04-13T19:54:13.688Z,0
2019-04-13T19:57:19.571Z,0
2019-04-13T20:00:25.700Z,0
2019-04-13T20:03:31.773Z,0
2019-04-13T20:06:37.753Z,0
2019-04-13T20:09:43.664Z,0
2019-04-13T20:12:53.212Z,0
2019-04-13T20:16:06.059Z,0
2019-04-13T20:19:14.686Z,0
2019-04-13T20:22:20.658Z,0
2019-04-13T20:25:35.405Z,0
2019-04-13T20:28:46.749Z,0
2019-04-13T20:31:57.652Z,0
2019-04-13T20:35:10.531Z,0
2019-04-13T20:38:21.440Z,79.9
2019-04-13T20:42:23.139Z,0
2019-04-13T20:45:36.581Z,0
2019-04-13T20:48:45.180Z,0
2019-04-13T20:51:54.181Z,0
2019-04-13T20:55:04.401Z,0
2019-04-13T20:58:21.020Z,0
2019-04-13T21:01:32.212Z,0
2019-04-13T21:04:42.245Z,0
2019-04-13T21:07:53.012Z,0
2019-04-13T21:11:01.114Z,0
2019-04-13T21:14:49.744Z,0
2019-04-13T21:18:03.617Z,0
2019-04-13T21:21:13.360Z,0
2019-04-13T21:24:24.173Z,0
2019-04-13T21:27:34.117Z,0
2019-04-13T21:30:45.209Z,0
2019-04-13T21:33:58.923Z,0
2019-04-13T21:37:10.218Z,0
2019-04-13T21:40:20.802Z,0
2019-04-13T21:43:37.239Z,0
2019-04-13T21:46:48.779Z,0
2019-04-13T21:50:00.098Z,0
2019-04-13T21:53:11.673Z,0
2019-04-13T21:56:21.665Z,0
2019-04-13T21:59:39.039Z,0
2019-04-13T22:02:49.083Z,0
2019-04-13T22:06:00.077Z,0
2019-04-13T22:09:11.669Z,0
2019-04-13T22:12:22.827Z,0
2019-04-13T22:15:33.765Z,0
2019-04-13T22:18:43.879Z,0
2019-04-13T22:21:55.287Z,0
2019-04-13T22:25:08.101Z,0
2019-04-13T22:28:23.567Z,0
2019-04-13T22:31:33.731Z,0
2019-04-13T22:34:44.673Z,0
2019-04-13T22:37:54.504Z,0
2019-04-13T22:41:07.042Z,0
2019-04-13T22:44:16.738Z,0
2019-04-13T22:47:26.277Z,0
2019-04-13T22:50:37.236Z,0
2019-04-13T22:53:48.223Z,0
2019-04-13T22:56:59.491Z,0
2019-04-13T23:00:10.536Z,0
2019-04-13T23:03:22.218Z,0
2019-04-13T23:06:32.026Z,0
2019-04-13T23:09:43.110Z,0
2019-04-13T23:12:53.580Z,0
2019-04-13T23:16:04.870Z,0
2019-04-13T23:19:15.412Z,0
2019-04-13T23:22:26.137Z,0
2019-04-13T23:25:36.043Z,0
2019-04-13T23:28:46.739Z,0
2019-04-13T23:31:58.658Z,0
2019-04-13T23:35:11.075Z,0
2019-04-13T23:38:20.834Z,0
2019-04-13T23:41:30.627Z,0
2019-04-13T23:44:44.878Z,0
2019-04-13T23:47:55.963Z,0
2019-04-13T23:51:06.227Z,0
2019-04-13T23:54:17.517Z,0
2019-04-13T23:57:27.629Z,0
